sensor_id;sensor_type;location;lat;lon;timestamp;P1;durP1;ratioP1;P2;durP2;ratioP2
16159;SDS011;8185;57.818;15.224;2023-04-24T00:02:02;27.10;;;17.03;;
16159;SDS011;8185;57.818;15.224;2023-04-24T00:04:31;30.97;;;16.67;;
16159;SDS011;8185;57.818;15.224;2023-04-24T00:06:59;33.27;;;17.93;;
16159;SDS011;8185;57.818;15.224;2023-04-24T00:09:26;33.93;;;18.47;;
16159;SDS011;8185;57.818;15.224;2023-04-24T00:11:53;35.67;;;19.27;;
16159;SDS011;8185;57.818;15.224;2023-04-24T00:14:21;31.57;;;18.17;;
16159;SDS011;8185;57.818;15.224;2023-04-24T00:16:48;31.70;;;18.33;;
16159;SDS011;8185;57.818;15.224;2023-04-24T00:19:17;39.37;;;19.87;;
16159;SDS011;8185;57.818;15.224;2023-04-24T00:21:46;32.10;;;19.67;;
16159;SDS011;8185;57.818;15.224;2023-04-24T00:24:15;33.97;;;19.07;;
16159;SDS011;8185;57.818;15.224;2023-04-24T00:26:42;31.83;;;18.60;;
16159;SDS011;8185;57.818;15.224;2023-04-24T00:29:09;29.20;;;17.20;;
16159;SDS011;8185;57.818;15.224;2023-04-24T00:31:36;38.70;;;20.20;;
16159;SDS011;8185;57.818;15.224;2023-04-24T00:34:03;40.33;;;20.97;;
16159;SDS011;8185;57.818;15.224;2023-04-24T00:36:33;36.17;;;21.30;;
16159;SDS011;8185;57.818;15.224;2023-04-24T00:39:00;51.07;;;33.37;;
16159;SDS011;8185;57.818;15.224;2023-04-24T00:41:27;36.83;;;21.53;;
16159;SDS011;8185;57.818;15.224;2023-04-24T00:43:54;35.17;;;19.37;;
16159;SDS011;8185;57.818;15.224;2023-04-24T00:46:21;39.93;;;23.57;;
16159;SDS011;8185;57.818;15.224;2023-04-24T00:48:48;56.00;;;33.33;;
16159;SDS011;8185;57.818;15.224;2023-04-24T00:51:16;38.97;;;22.13;;
16159;SDS011;8185;57.818;15.224;2023-04-24T00:53:45;36.00;;;21.63;;
16159;SDS011;8185;57.818;15.224;2023-04-24T00:56:12;38.10;;;21.77;;
16159;SDS011;8185;57.818;15.224;2023-04-24T00:58:40;45.20;;;25.27;;
16159;SDS011;8185;57.818;15.224;2023-04-24T01:01:07;36.17;;;22.40;;
16159;SDS011;8185;57.818;15.224;2023-04-24T01:03:36;39.67;;;22.53;;
16159;SDS011;8185;57.818;15.224;2023-04-24T01:06:04;38.97;;;23.13;;
16159;SDS011;8185;57.818;15.224;2023-04-24T01:08:32;45.27;;;24.97;;
16159;SDS011;8185;57.818;15.224;2023-04-24T01:11:03;33.87;;;19.17;;
16159;SDS011;8185;57.818;15.224;2023-04-24T01:13:31;44.63;;;24.30;;
16159;SDS011;8185;57.818;15.224;2023-04-24T01:15:58;39.00;;;22.50;;
16159;SDS011;8185;57.818;15.224;2023-04-24T01:18:26;43.83;;;24.67;;
16159;SDS011;8185;57.818;15.224;2023-04-24T01:20:55;44.47;;;25.50;;
16159;SDS011;8185;57.818;15.224;2023-04-24T01:23:25;45.53;;;30.27;;
16159;SDS011;8185;57.818;15.224;2023-04-24T01:25:53;42.80;;;24.60;;
16159;SDS011;8185;57.818;15.224;2023-04-24T01:28:20;46.10;;;28.43;;
16159;SDS011;8185;57.818;15.224;2023-04-24T01:30:48;53.43;;;34.00;;
16159;SDS011;8185;57.818;15.224;2023-04-24T01:33:15;55.63;;;35.73;;
16159;SDS011;8185;57.818;15.224;2023-04-24T01:35:43;38.77;;;23.43;;
16159;SDS011;8185;57.818;15.224;2023-04-24T01:38:10;45.50;;;25.37;;
16159;SDS011;8185;57.818;15.224;2023-04-24T01:40:39;47.13;;;28.03;;
16159;SDS011;8185;57.818;15.224;2023-04-24T01:43:06;41.40;;;23.47;;
16159;SDS011;8185;57.818;15.224;2023-04-24T01:45:34;43.23;;;25.50;;
16159;SDS011;8185;57.818;15.224;2023-04-24T01:48:01;48.30;;;30.87;;
16159;SDS011;8185;57.818;15.224;2023-04-24T01:50:28;47.03;;;28.80;;
16159;SDS011;8185;57.818;15.224;2023-04-24T01:52:56;49.47;;;30.77;;
16159;SDS011;8185;57.818;15.224;2023-04-24T01:55:23;50.70;;;33.57;;
16159;SDS011;8185;57.818;15.224;2023-04-24T01:57:52;55.07;;;33.90;;
16159;SDS011;8185;57.818;15.224;2023-04-24T02:00:21;58.97;;;36.37;;
16159;SDS011;8185;57.818;15.224;2023-04-24T02:02:49;46.40;;;25.67;;
16159;SDS011;8185;57.818;15.224;2023-04-24T02:05:16;51.83;;;31.37;;
16159;SDS011;8185;57.818;15.224;2023-04-24T02:07:43;52.60;;;31.90;;
16159;SDS011;8185;57.818;15.224;2023-04-24T02:10:11;45.37;;;24.03;;
16159;SDS011;8185;57.818;15.224;2023-04-24T02:12:38;50.63;;;31.33;;
16159;SDS011;8185;57.818;15.224;2023-04-24T02:15:07;48.00;;;26.03;;
16159;SDS011;8185;57.818;15.224;2023-04-24T02:17:34;45.10;;;24.03;;
16159;SDS011;8185;57.818;15.224;2023-04-24T02:20:02;34.70;;;22.10;;
16159;SDS011;8185;57.818;15.224;2023-04-24T02:22:29;50.73;;;32.67;;
16159;SDS011;8185;57.818;15.224;2023-04-24T02:24:56;37.83;;;21.60;;
16159;SDS011;8185;57.818;15.224;2023-04-24T02:27:24;34.37;;;22.23;;
16159;SDS011;8185;57.818;15.224;2023-04-24T02:29:51;42.77;;;23.13;;
16159;SDS011;8185;57.818;15.224;2023-04-24T02:32:19;35.53;;;21.43;;
16159;SDS011;8185;57.818;15.224;2023-04-24T02:34:47;37.67;;;22.57;;
16159;SDS011;8185;57.818;15.224;2023-04-24T02:37:14;40.67;;;21.90;;
16159;SDS011;8185;57.818;15.224;2023-04-24T02:39:41;36.37;;;22.73;;
16159;SDS011;8185;57.818;15.224;2023-04-24T02:42:08;37.03;;;22.13;;
16159;SDS011;8185;57.818;15.224;2023-04-24T02:44:35;40.10;;;23.07;;
16159;SDS011;8185;57.818;15.224;2023-04-24T02:47:03;39.77;;;23.57;;
16159;SDS011;8185;57.818;15.224;2023-04-24T02:49:32;37.57;;;20.87;;
16159;SDS011;8185;57.818;15.224;2023-04-24T02:51:59;34.93;;;22.10;;
16159;SDS011;8185;57.818;15.224;2023-04-24T02:54:26;33.90;;;20.90;;
16159;SDS011;8185;57.818;15.224;2023-04-24T02:56:53;37.57;;;20.47;;
16159;SDS011;8185;57.818;15.224;2023-04-24T02:59:22;32.43;;;20.30;;
16159;SDS011;8185;57.818;15.224;2023-04-24T03:01:49;39.53;;;19.13;;
16159;SDS011;8185;57.818;15.224;2023-04-24T03:04:16;36.63;;;20.77;;
16159;SDS011;8185;57.818;15.224;2023-04-24T03:06:46;37.97;;;20.47;;
16159;SDS011;8185;57.818;15.224;2023-04-24T03:09:13;34.23;;;19.87;;
16159;SDS011;8185;57.818;15.224;2023-04-24T03:11:41;38.40;;;20.13;;
16159;SDS011;8185;57.818;15.224;2023-04-24T03:14:08;36.83;;;19.70;;
16159;SDS011;8185;57.818;15.224;2023-04-24T03:16:36;38.37;;;22.07;;
16159;SDS011;8185;57.818;15.224;2023-04-24T03:19:03;42.77;;;20.30;;
16159;SDS011;8185;57.818;15.224;2023-04-24T03:21:30;36.70;;;18.83;;
16159;SDS011;8185;57.818;15.224;2023-04-24T03:23:59;38.10;;;20.57;;
16159;SDS011;8185;57.818;15.224;2023-04-24T03:26:27;43.23;;;22.20;;
16159;SDS011;8185;57.818;15.224;2023-04-24T03:28:54;31.73;;;18.87;;
16159;SDS011;8185;57.818;15.224;2023-04-24T03:31:21;37.13;;;20.67;;
16159;SDS011;8185;57.818;15.224;2023-04-24T03:33:48;37.03;;;20.43;;
16159;SDS011;8185;57.818;15.224;2023-04-24T03:36:16;40.03;;;19.63;;
16159;SDS011;8185;57.818;15.224;2023-04-24T03:38:44;39.33;;;19.10;;
16159;SDS011;8185;57.818;15.224;2023-04-24T03:41:12;30.40;;;18.93;;
16159;SDS011;8185;57.818;15.224;2023-04-24T03:43:40;32.43;;;18.83;;
16159;SDS011;8185;57.818;15.224;2023-04-24T03:46:07;32.90;;;17.47;;
16159;SDS011;8185;57.818;15.224;2023-04-24T03:48:34;36.90;;;19.60;;
16159;SDS011;8185;57.818;15.224;2023-04-24T03:51:02;35.47;;;19.07;;
16159;SDS011;8185;57.818;15.224;2023-04-24T03:53:29;38.43;;;18.30;;
16159;SDS011;8185;57.818;15.224;2023-04-24T03:55:56;34.17;;;18.77;;
16159;SDS011;8185;57.818;15.224;2023-04-24T03:58:25;29.83;;;17.43;;
16159;SDS011;8185;57.818;15.224;2023-04-24T04:00:52;35.00;;;17.60;;
16159;SDS011;8185;57.818;15.224;2023-04-24T04:03:19;37.03;;;18.00;;
16159;SDS011;8185;57.818;15.224;2023-04-24T04:05:46;48.27;;;19.30;;
16159;SDS011;8185;57.818;15.224;2023-04-24T04:08:14;40.23;;;18.47;;
16159;SDS011;8185;57.818;15.224;2023-04-24T04:10:41;46.77;;;17.50;;
16159;SDS011;8185;57.818;15.224;2023-04-24T04:13:08;41.47;;;17.63;;
16159;SDS011;8185;57.818;15.224;2023-04-24T04:15:37;46.13;;;17.63;;
16159;SDS011;8185;57.818;15.224;2023-04-24T04:18:04;43.57;;;17.23;;
16159;SDS011;8185;57.818;15.224;2023-04-24T04:20:31;42.97;;;15.87;;
16159;SDS011;8185;57.818;15.224;2023-04-24T04:22:58;40.00;;;16.40;;
16159;SDS011;8185;57.818;15.224;2023-04-24T04:25:26;94.77;;;18.33;;
16159;SDS011;8185;57.818;15.224;2023-04-24T04:27:54;60.53;;;16.27;;
16159;SDS011;8185;57.818;15.224;2023-04-24T04:30:23;40.17;;;16.10;;
16159;SDS011;8185;57.818;15.224;2023-04-24T04:32:52;64.90;;;16.60;;
16159;SDS011;8185;57.818;15.224;2023-04-24T04:35:19;47.17;;;17.97;;
16159;SDS011;8185;57.818;15.224;2023-04-24T04:37:46;54.07;;;17.47;;
16159;SDS011;8185;57.818;15.224;2023-04-24T04:40:13;49.97;;;16.50;;
16159;SDS011;8185;57.818;15.224;2023-04-24T04:42:41;53.57;;;16.57;;
16159;SDS011;8185;57.818;15.224;2023-04-24T04:45:11;58.10;;;15.00;;
16159;SDS011;8185;57.818;15.224;2023-04-24T04:47:38;46.33;;;15.93;;
16159;SDS011;8185;57.818;15.224;2023-04-24T04:50:07;44.93;;;16.23;;
16159;SDS011;8185;57.818;15.224;2023-04-24T04:52:35;70.80;;;16.10;;
16159;SDS011;8185;57.818;15.224;2023-04-24T04:55:03;40.10;;;15.27;;
16159;SDS011;8185;57.818;15.224;2023-04-24T04:57:30;42.27;;;16.10;;
16159;SDS011;8185;57.818;15.224;2023-04-24T04:59:58;49.00;;;16.00;;
16159;SDS011;8185;57.818;15.224;2023-04-24T05:02:25;33.97;;;15.47;;
16159;SDS011;8185;57.818;15.224;2023-04-24T05:04:52;33.13;;;14.90;;
16159;SDS011;8185;57.818;15.224;2023-04-24T05:07:21;44.73;;;15.70;;
16159;SDS011;8185;57.818;15.224;2023-04-24T05:09:48;33.27;;;14.93;;
16159;SDS011;8185;57.818;15.224;2023-04-24T05:12:16;42.33;;;13.57;;
16159;SDS011;8185;57.818;15.224;2023-04-24T05:14:43;27.77;;;13.87;;
16159;SDS011;8185;57.818;15.224;2023-04-24T05:17:11;49.40;;;14.17;;
16159;SDS011;8185;57.818;15.224;2023-04-24T05:19:38;37.23;;;13.33;;
16159;SDS011;8185;57.818;15.224;2023-04-24T05:22:05;44.77;;;13.83;;
16159;SDS011;8185;57.818;15.224;2023-04-24T05:24:34;24.73;;;12.77;;
16159;SDS011;8185;57.818;15.224;2023-04-24T05:27:01;25.43;;;19.23;;
16159;SDS011;8185;57.818;15.224;2023-04-24T05:29:29;27.80;;;13.20;;
16159;SDS011;8185;57.818;15.224;2023-04-24T05:31:58;25.90;;;12.83;;
16159;SDS011;8185;57.818;15.224;2023-04-24T05:34:26;17.20;;;12.40;;
16159;SDS011;8185;57.818;15.224;2023-04-24T05:36:53;22.73;;;13.67;;
16159;SDS011;8185;57.818;15.224;2023-04-24T05:39:20;22.40;;;13.50;;
16159;SDS011;8185;57.818;15.224;2023-04-24T05:41:50;24.27;;;13.13;;
16159;SDS011;8185;57.818;15.224;2023-04-24T05:44:17;15.67;;;12.60;;
16159;SDS011;8185;57.818;15.224;2023-04-24T05:46:44;19.77;;;13.07;;
16159;SDS011;8185;57.818;15.224;2023-04-24T05:49:12;16.50;;;13.17;;
16159;SDS011;8185;57.818;15.224;2023-04-24T05:51:39;14.43;;;11.50;;
16159;SDS011;8185;57.818;15.224;2023-04-24T05:54:06;17.80;;;12.93;;
16159;SDS011;8185;57.818;15.224;2023-04-24T05:56:33;16.90;;;12.40;;
16159;SDS011;8185;57.818;15.224;2023-04-24T05:59:02;16.83;;;13.47;;
16159;SDS011;8185;57.818;15.224;2023-04-24T06:01:29;25.80;;;12.70;;
16159;SDS011;8185;57.818;15.224;2023-04-24T06:03:56;17.20;;;12.13;;
16159;SDS011;8185;57.818;15.224;2023-04-24T06:06:24;18.07;;;13.57;;
16159;SDS011;8185;57.818;15.224;2023-04-24T06:08:52;19.70;;;12.90;;
16159;SDS011;8185;57.818;15.224;2023-04-24T06:11:19;15.30;;;12.00;;
16159;SDS011;8185;57.818;15.224;2023-04-24T06:13:46;15.93;;;12.50;;
16159;SDS011;8185;57.818;15.224;2023-04-24T06:16:15;17.30;;;12.23;;
16159;SDS011;8185;57.818;15.224;2023-04-24T06:18:42;15.53;;;12.57;;
16159;SDS011;8185;57.818;15.224;2023-04-24T06:21:12;19.03;;;13.07;;
16159;SDS011;8185;57.818;15.224;2023-04-24T06:23:39;18.47;;;13.03;;
16159;SDS011;8185;57.818;15.224;2023-04-24T06:26:06;18.67;;;12.47;;
16159;SDS011;8185;57.818;15.224;2023-04-24T06:28:33;19.30;;;12.70;;
16159;SDS011;8185;57.818;15.224;2023-04-24T06:31:01;16.60;;;12.70;;
16159;SDS011;8185;57.818;15.224;2023-04-24T06:33:29;16.07;;;12.93;;
16159;SDS011;8185;57.818;15.224;2023-04-24T06:35:56;15.23;;;11.93;;
16159;SDS011;8185;57.818;15.224;2023-04-24T06:38:24;16.77;;;12.60;;
16159;SDS011;8185;57.818;15.224;2023-04-24T06:40:51;16.00;;;12.73;;
16159;SDS011;8185;57.818;15.224;2023-04-24T06:43:18;15.90;;;12.60;;
16159;SDS011;8185;57.818;15.224;2023-04-24T06:45:45;15.70;;;12.33;;
16159;SDS011;8185;57.818;15.224;2023-04-24T06:48:14;14.63;;;11.70;;
16159;SDS011;8185;57.818;15.224;2023-04-24T06:50:42;14.27;;;11.73;;
16159;SDS011;8185;57.818;15.224;2023-04-24T06:53:10;15.57;;;11.93;;
16159;SDS011;8185;57.818;15.224;2023-04-24T06:55:39;14.83;;;11.97;;
16159;SDS011;8185;57.818;15.224;2023-04-24T06:58:08;17.70;;;11.70;;
16159;SDS011;8185;57.818;15.224;2023-04-24T07:00:35;13.57;;;11.37;;
16159;SDS011;8185;57.818;15.224;2023-04-24T07:03:03;14.03;;;12.23;;
16159;SDS011;8185;57.818;15.224;2023-04-24T07:05:30;15.80;;;12.00;;
16159;SDS011;8185;57.818;15.224;2023-04-24T07:08:00;14.13;;;12.63;;
16159;SDS011;8185;57.818;15.224;2023-04-24T07:10:28;14.63;;;12.53;;
16159;SDS011;8185;57.818;15.224;2023-04-24T07:12:55;13.80;;;11.60;;
16159;SDS011;8185;57.818;15.224;2023-04-24T07:15:22;14.83;;;12.13;;
16159;SDS011;8185;57.818;15.224;2023-04-24T07:17:50;13.43;;;11.20;;
16159;SDS011;8185;57.818;15.224;2023-04-24T07:20:17;14.13;;;11.93;;
16159;SDS011;8185;57.818;15.224;2023-04-24T07:22:44;14.00;;;12.23;;
16159;SDS011;8185;57.818;15.224;2023-04-24T07:25:14;14.93;;;12.07;;
16159;SDS011;8185;57.818;15.224;2023-04-24T07:27:42;14.70;;;12.40;;
16159;SDS011;8185;57.818;15.224;2023-04-24T07:30:10;16.17;;;12.83;;
16159;SDS011;8185;57.818;15.224;2023-04-24T07:32:38;14.13;;;12.17;;
16159;SDS011;8185;57.818;15.224;2023-04-24T07:35:05;15.83;;;12.47;;
16159;SDS011;8185;57.818;15.224;2023-04-24T07:37:34;14.20;;;12.17;;
16159;SDS011;8185;57.818;15.224;2023-04-24T07:40:02;15.67;;;12.37;;
16159;SDS011;8185;57.818;15.224;2023-04-24T07:42:31;15.67;;;12.53;;
16159;SDS011;8185;57.818;15.224;2023-04-24T07:44:59;14.77;;;12.60;;
16159;SDS011;8185;57.818;15.224;2023-04-24T07:47:26;18.40;;;12.73;;
16159;SDS011;8185;57.818;15.224;2023-04-24T07:49:54;16.50;;;12.30;;
16159;SDS011;8185;57.818;15.224;2023-04-24T07:52:21;14.80;;;12.37;;
16159;SDS011;8185;57.818;15.224;2023-04-24T07:54:49;15.80;;;12.60;;
16159;SDS011;8185;57.818;15.224;2023-04-24T07:57:18;13.07;;;11.10;;
16159;SDS011;8185;57.818;15.224;2023-04-24T07:59:46;16.77;;;13.07;;
16159;SDS011;8185;57.818;15.224;2023-04-24T08:02:14;14.17;;;12.63;;
16159;SDS011;8185;57.818;15.224;2023-04-24T08:04:41;14.07;;;12.50;;
16159;SDS011;8185;57.818;15.224;2023-04-24T08:07:08;13.80;;;11.33;;
16159;SDS011;8185;57.818;15.224;2023-04-24T08:09:38;15.70;;;12.40;;
16159;SDS011;8185;57.818;15.224;2023-04-24T08:12:05;14.70;;;12.17;;
16159;SDS011;8185;57.818;15.224;2023-04-24T08:14:33;14.47;;;11.63;;
16159;SDS011;8185;57.818;15.224;2023-04-24T08:17:01;12.93;;;11.27;;
16159;SDS011;8185;57.818;15.224;2023-04-24T08:19:28;16.33;;;12.30;;
16159;SDS011;8185;57.818;15.224;2023-04-24T08:21:56;12.50;;;11.13;;
16159;SDS011;8185;57.818;15.224;2023-04-24T08:24:23;12.97;;;11.27;;
16159;SDS011;8185;57.818;15.224;2023-04-24T08:26:50;15.17;;;12.00;;
16159;SDS011;8185;57.818;15.224;2023-04-24T08:29:19;13.23;;;11.50;;
16159;SDS011;8185;57.818;15.224;2023-04-24T08:31:47;16.33;;;12.00;;
16159;SDS011;8185;57.818;15.224;2023-04-24T08:34:16;12.60;;;11.30;;
16159;SDS011;8185;57.818;15.224;2023-04-24T08:36:43;12.43;;;11.13;;
16159;SDS011;8185;57.818;15.224;2023-04-24T08:39:10;13.00;;;11.10;;
16159;SDS011;8185;57.818;15.224;2023-04-24T08:41:38;12.30;;;10.07;;
16159;SDS011;8185;57.818;15.224;2023-04-24T08:44:08;14.37;;;11.40;;
16159;SDS011;8185;57.818;15.224;2023-04-24T08:46:36;13.33;;;11.20;;
16159;SDS011;8185;57.818;15.224;2023-04-24T08:49:03;11.83;;;10.63;;
16159;SDS011;8185;57.818;15.224;2023-04-24T08:51:33;11.53;;;10.30;;
16159;SDS011;8185;57.818;15.224;2023-04-24T08:54:00;11.90;;;10.30;;
16159;SDS011;8185;57.818;15.224;2023-04-24T08:56:29;11.47;;;10.27;;
16159;SDS011;8185;57.818;15.224;2023-04-24T08:58:57;11.17;;;9.77;;
16159;SDS011;8185;57.818;15.224;2023-04-24T09:01:24;13.20;;;11.00;;
16159;SDS011;8185;57.818;15.224;2023-04-24T09:03:54;10.07;;;9.07;;
16159;SDS011;8185;57.818;15.224;2023-04-24T09:06:23;11.03;;;9.53;;
16159;SDS011;8185;57.818;15.224;2023-04-24T09:08:52;10.13;;;9.07;;
16159;SDS011;8185;57.818;15.224;2023-04-24T09:11:21;10.50;;;9.40;;
16159;SDS011;8185;57.818;15.224;2023-04-24T09:13:50;10.73;;;9.10;;
16159;SDS011;8185;57.818;15.224;2023-04-24T09:16:18;10.47;;;9.47;;
16159;SDS011;8185;57.818;15.224;2023-04-24T09:18:48;13.07;;;10.00;;
16159;SDS011;8185;57.818;15.224;2023-04-24T09:21:18;9.70;;;8.67;;
16159;SDS011;8185;57.818;15.224;2023-04-24T09:23:47;10.93;;;9.37;;
16159;SDS011;8185;57.818;15.224;2023-04-24T09:26:26;10.10;;;8.50;;
16159;SDS011;8185;57.818;15.224;2023-04-24T09:28:58;9.57;;;8.57;;
16159;SDS011;8185;57.818;15.224;2023-04-24T09:31:26;9.50;;;8.60;;
16159;SDS011;8185;57.818;15.224;2023-04-24T09:33:56;9.53;;;8.63;;
16159;SDS011;8185;57.818;15.224;2023-04-24T09:36:28;9.03;;;8.10;;
16159;SDS011;8185;57.818;15.224;2023-04-24T09:38:59;10.97;;;8.63;;
16159;SDS011;8185;57.818;15.224;2023-04-24T09:41:28;9.60;;;8.60;;
16159;SDS011;8185;57.818;15.224;2023-04-24T09:43:55;9.87;;;8.57;;
16159;SDS011;8185;57.818;15.224;2023-04-24T09:46:29;8.57;;;7.73;;
16159;SDS011;8185;57.818;15.224;2023-04-24T09:48:57;10.70;;;8.90;;
16159;SDS011;8185;57.818;15.224;2023-04-24T09:51:34;9.90;;;8.90;;
16159;SDS011;8185;57.818;15.224;2023-04-24T09:54:04;10.40;;;9.20;;
16159;SDS011;8185;57.818;15.224;2023-04-24T09:56:42;10.40;;;9.40;;
16159;SDS011;8185;57.818;15.224;2023-04-24T09:59:11;11.33;;;9.30;;
16159;SDS011;8185;57.818;15.224;2023-04-24T10:01:39;9.33;;;7.53;;
16159;SDS011;8185;57.818;15.224;2023-04-24T10:04:16;8.73;;;7.93;;
16159;SDS011;8185;57.818;15.224;2023-04-24T10:06:45;10.93;;;8.57;;
16159;SDS011;8185;57.818;15.224;2023-04-24T10:09:15;10.00;;;8.67;;
16159;SDS011;8185;57.818;15.224;2023-04-24T10:11:44;9.10;;;8.20;;
16159;SDS011;8185;57.818;15.224;2023-04-24T10:14:13;9.13;;;8.20;;
16159;SDS011;8185;57.818;15.224;2023-04-24T10:16:43;8.80;;;8.00;;
16159;SDS011;8185;57.818;15.224;2023-04-24T10:19:12;8.40;;;7.53;;
16159;SDS011;8185;57.818;15.224;2023-04-24T10:21:40;9.33;;;7.93;;
16159;SDS011;8185;57.818;15.224;2023-04-24T10:24:12;9.87;;;8.40;;
16159;SDS011;8185;57.818;15.224;2023-04-24T10:26:42;8.43;;;7.57;;
16159;SDS011;8185;57.818;15.224;2023-04-24T10:29:10;8.27;;;7.47;;
16159;SDS011;8185;57.818;15.224;2023-04-24T10:31:38;8.33;;;7.40;;
16159;SDS011;8185;57.818;15.224;2023-04-24T10:34:05;7.43;;;6.57;;
16159;SDS011;8185;57.818;15.224;2023-04-24T10:36:34;9.03;;;8.07;;
16159;SDS011;8185;57.818;15.224;2023-04-24T10:39:03;8.73;;;7.90;;
16159;SDS011;8185;57.818;15.224;2023-04-24T10:41:37;9.67;;;7.90;;
16159;SDS011;8185;57.818;15.224;2023-04-24T10:44:06;8.60;;;7.63;;
16159;SDS011;8185;57.818;15.224;2023-04-24T10:46:34;7.93;;;7.13;;
16159;SDS011;8185;57.818;15.224;2023-04-24T10:49:03;8.03;;;7.23;;
16159;SDS011;8185;57.818;15.224;2023-04-24T10:51:46;7.03;;;6.30;;
16159;SDS011;8185;57.818;15.224;2023-04-24T10:54:24;7.70;;;7.00;;
16159;SDS011;8185;57.818;15.224;2023-04-24T10:56:53;7.40;;;6.57;;
16159;SDS011;8185;57.818;15.224;2023-04-24T11:02:40;6.73;;;6.03;;
16159;SDS011;8185;57.818;15.224;2023-04-24T11:05:14;7.30;;;6.60;;
16159;SDS011;8185;57.818;15.224;2023-04-24T11:10:38;7.13;;;6.43;;
16159;SDS011;8185;57.818;15.224;2023-04-24T11:13:06;6.90;;;6.20;;
16159;SDS011;8185;57.818;15.224;2023-04-24T11:15:35;7.83;;;6.50;;
16159;SDS011;8185;57.818;15.224;2023-04-24T11:18:03;6.93;;;6.23;;
16159;SDS011;8185;57.818;15.224;2023-04-24T11:20:30;7.80;;;6.00;;
16159;SDS011;8185;57.818;15.224;2023-04-24T11:23:00;6.97;;;5.97;;
16159;SDS011;8185;57.818;15.224;2023-04-24T11:25:32;6.37;;;5.77;;
16159;SDS011;8185;57.818;15.224;2023-04-24T11:28:05;6.50;;;5.23;;
16159;SDS011;8185;57.818;15.224;2023-04-24T11:30:32;5.60;;;5.10;;
16159;SDS011;8185;57.818;15.224;2023-04-24T11:33:04;5.73;;;5.20;;
16159;SDS011;8185;57.818;15.224;2023-04-24T11:35:35;5.47;;;4.68;;
16159;SDS011;8185;57.818;15.224;2023-04-24T11:38:05;7.05;;;5.03;;
16159;SDS011;8185;57.818;15.224;2023-04-24T11:40:34;5.37;;;4.67;;
16159;SDS011;8185;57.818;15.224;2023-04-24T11:43:01;6.45;;;5.03;;
16159;SDS011;8185;57.818;15.224;2023-04-24T11:45:31;5.68;;;5.10;;
16159;SDS011;8185;57.818;15.224;2023-04-24T11:47:58;6.07;;;4.63;;
16159;SDS011;8185;57.818;15.224;2023-04-24T11:50:27;4.70;;;4.00;;
16159;SDS011;8185;57.818;15.224;2023-04-24T11:52:55;5.20;;;4.70;;
16159;SDS011;8185;57.818;15.224;2023-04-24T11:55:24;4.77;;;4.37;;
16159;SDS011;8185;57.818;15.224;2023-04-24T11:57:53;5.57;;;4.30;;
16159;SDS011;8185;57.818;15.224;2023-04-24T12:00:22;4.53;;;4.13;;
16159;SDS011;8185;57.818;15.224;2023-04-24T12:02:51;4.93;;;4.27;;
16159;SDS011;8185;57.818;15.224;2023-04-24T12:05:32;4.73;;;4.20;;
16159;SDS011;8185;57.818;15.224;2023-04-24T12:07:59;4.30;;;3.90;;
16159;SDS011;8185;57.818;15.224;2023-04-24T12:10:27;4.60;;;4.20;;
16159;SDS011;8185;57.818;15.224;2023-04-24T12:12:56;4.53;;;4.13;;
16159;SDS011;8185;57.818;15.224;2023-04-24T12:15:25;4.37;;;3.97;;
16159;SDS011;8185;57.818;15.224;2023-04-24T12:17:54;4.00;;;3.60;;
16159;SDS011;8185;57.818;15.224;2023-04-24T12:20:26;5.30;;;3.83;;
16159;SDS011;8185;57.818;15.224;2023-04-24T12:22:57;4.07;;;3.70;;
16159;SDS011;8185;57.818;15.224;2023-04-24T12:25:25;4.87;;;4.47;;
16159;SDS011;8185;57.818;15.224;2023-04-24T12:27:55;5.40;;;4.90;;
16159;SDS011;8185;57.818;15.224;2023-04-24T12:30:39;4.77;;;4.37;;
16159;SDS011;8185;57.818;15.224;2023-04-24T12:33:09;4.30;;;3.90;;
16159;SDS011;8185;57.818;15.224;2023-04-24T12:35:36;5.30;;;4.30;;
16159;SDS011;8185;57.818;15.224;2023-04-24T12:38:08;4.70;;;3.90;;
16159;SDS011;8185;57.818;15.224;2023-04-24T12:40:37;5.77;;;3.87;;
16159;SDS011;8185;57.818;15.224;2023-04-24T12:43:12;4.47;;;3.60;;
16159;SDS011;8185;57.818;15.224;2023-04-24T12:45:40;4.67;;;3.63;;
16159;SDS011;8185;57.818;15.224;2023-04-24T12:48:08;3.60;;;3.27;;
16159;SDS011;8185;57.818;15.224;2023-04-24T12:50:35;3.97;;;3.57;;
16159;SDS011;8185;57.818;15.224;2023-04-24T12:53:02;3.63;;;3.33;;
16159;SDS011;8185;57.818;15.224;2023-04-24T12:55:32;3.30;;;2.80;;
16159;SDS011;8185;57.818;15.224;2023-04-24T12:58:00;3.30;;;2.90;;
16159;SDS011;8185;57.818;15.224;2023-04-24T13:00:28;3.83;;;2.77;;
16159;SDS011;8185;57.818;15.224;2023-04-24T13:02:55;2.93;;;2.63;;
16159;SDS011;8185;57.818;15.224;2023-04-24T13:05:22;4.30;;;2.60;;
16159;SDS011;8185;57.818;15.224;2023-04-24T13:07:50;3.20;;;2.87;;
16159;SDS011;8185;57.818;15.224;2023-04-24T13:10:17;3.17;;;2.40;;
16159;SDS011;8185;57.818;15.224;2023-04-24T13:12:46;3.10;;;2.30;;
16159;SDS011;8185;57.818;15.224;2023-04-24T13:15:13;3.37;;;2.47;;
16159;SDS011;8185;57.818;15.224;2023-04-24T13:17:40;3.13;;;2.30;;
16159;SDS011;8185;57.818;15.224;2023-04-24T13:20:08;2.20;;;2.00;;
16159;SDS011;8185;57.818;15.224;2023-04-24T13:22:35;2.00;;;1.90;;
16159;SDS011;8185;57.818;15.224;2023-04-24T13:25:03;1.97;;;1.83;;
16159;SDS011;8185;57.818;15.224;2023-04-24T13:27:32;2.83;;;1.87;;
16159;SDS011;8185;57.818;15.224;2023-04-24T13:30:01;2.00;;;1.80;;
16159;SDS011;8185;57.818;15.224;2023-04-24T13:32:29;2.30;;;2.10;;
16159;SDS011;8185;57.818;15.224;2023-04-24T13:34:56;3.50;;;1.87;;
16159;SDS011;8185;57.818;15.224;2023-04-24T13:37:23;1.90;;;1.70;;
16159;SDS011;8185;57.818;15.224;2023-04-24T13:39:50;2.03;;;1.70;;
16159;SDS011;8185;57.818;15.224;2023-04-24T13:42:18;1.70;;;1.60;;
16159;SDS011;8185;57.818;15.224;2023-04-24T13:44:46;1.63;;;1.50;;
16159;SDS011;8185;57.818;15.224;2023-04-24T13:47:15;1.33;;;1.23;;
16159;SDS011;8185;57.818;15.224;2023-04-24T13:49:42;1.90;;;1.70;;
16159;SDS011;8185;57.818;15.224;2023-04-24T13:52:09;1.70;;;1.50;;
16159;SDS011;8185;57.818;15.224;2023-04-24T13:54:36;1.60;;;1.50;;
16159;SDS011;8185;57.818;15.224;2023-04-24T13:57:03;3.80;;;1.73;;
16159;SDS011;8185;57.818;15.224;2023-04-24T13:59:31;1.70;;;1.53;;
16159;SDS011;8185;57.818;15.224;2023-04-24T14:01:58;1.60;;;1.50;;
16159;SDS011;8185;57.818;15.224;2023-04-24T14:04:27;1.50;;;1.40;;
16159;SDS011;8185;57.818;15.224;2023-04-24T14:06:54;1.53;;;1.37;;
16159;SDS011;8185;57.818;15.224;2023-04-24T14:09:21;1.60;;;1.50;;
16159;SDS011;8185;57.818;15.224;2023-04-24T14:11:48;1.43;;;1.27;;
16159;SDS011;8185;57.818;15.224;2023-04-24T14:14:16;1.70;;;1.50;;
16159;SDS011;8185;57.818;15.224;2023-04-24T14:16:43;4.13;;;1.37;;
16159;SDS011;8185;57.818;15.224;2023-04-24T14:19:10;3.27;;;1.50;;
16159;SDS011;8185;57.818;15.224;2023-04-24T14:21:39;1.47;;;1.33;;
16159;SDS011;8185;57.818;15.224;2023-04-24T14:24:06;1.60;;;1.50;;
16159;SDS011;8185;57.818;15.224;2023-04-24T14:26:34;1.40;;;1.30;;
16159;SDS011;8185;57.818;15.224;2023-04-24T14:29:01;1.30;;;1.20;;
16159;SDS011;8185;57.818;15.224;2023-04-24T14:31:29;1.40;;;1.20;;
16159;SDS011;8185;57.818;15.224;2023-04-24T14:33:56;1.97;;;1.23;;
16159;SDS011;8185;57.818;15.224;2023-04-24T14:36:23;1.57;;;1.00;;
16159;SDS011;8185;57.818;15.224;2023-04-24T14:38:52;1.33;;;1.17;;
16159;SDS011;8185;57.818;15.224;2023-04-24T14:41:19;1.80;;;1.43;;
16159;SDS011;8185;57.818;15.224;2023-04-24T14:43:46;2.33;;;1.30;;